Time;durP1;ratioP1;P1;durP2;ratioP2;P2;SDS_P1;SDS_P2;PMS_P1;PMS_P2;Temp;Humidity;BMP_temperature;BMP_pressure;BME280_temperature;BME280_humidity;BME280_pressure;Samples;Min_cycle;Max_cycle;Signal;HPM_P1;HPM_P2
2022/11/16 00:01:33;;;;;;;87.23;58.73;;;;;;;8.42;96.65;98128.61;2219611;80;20935;-80
2022/11/16 00:04:33;;;;;;;74.77;48.90;;;;;;;8.40;96.79;98127.30;2219428;80;20967;-81
2022/11/16 00:07:33;;;;;;;77.67;49.67;;;;;;;8.40;96.84;98132.49;2219413;80;20963;-81
2022/11/16 00:10:34;;;;;;;79.90;51.20;;;;;;;8.37;96.88;98131.16;2219287;80;20955;-81
2022/11/16 00:13:34;;;;;;;87.63;52.60;;;;;;;8.40;97.11;98130.32;2219578;80;20983;-80
2022/11/16 00:16:35;;;;;;;81.30;48.27;;;;;;;8.41;97.17;98138.14;2219505;80;21519;-81
2022/11/16 00:19:35;;;;;;;82.27;50.40;;;;;;;8.42;97.15;98134.68;2219345;80;20916;-81
2022/11/16 00:22:35;;;;;;;72.57;47.40;;;;;;;8.40;97.08;98132.49;2219635;80;20928;-80
2022/11/16 00:25:36;;;;;;;82.13;50.37;;;;;;;8.39;97.17;98132.05;2219490;80;20987;-81
2022/11/16 00:28:36;;;;;;;77.00;49.27;;;;;;;8.38;97.19;98126.83;2219291;80;20927;-80
2022/11/16 00:31:37;;;;;;;82.80;53.83;;;;;;;8.36;97.02;98125.95;2219130;80;20939;-81
2022/11/16 00:34:38;;;;;;;76.30;48.97;;;;;;;8.35;97.09;98121.61;2219778;80;21283;-81
2022/11/16 00:37:38;;;;;;;79.87;48.80;;;;;;;8.34;97.27;98118.56;2219225;80;20967;-80
2022/11/16 00:40:38;;;;;;;84.17;48.40;;;;;;;8.36;97.34;98115.55;2206806;80;20999;-81
2022/11/16 00:43:38;;;;;;;77.73;46.80;;;;;;;8.38;97.28;98115.13;2187687;81;20943;-81
2022/11/16 00:46:39;;;;;;;84.67;47.80;;;;;;;8.37;97.21;98114.69;2187437;81;20962;-80
2022/11/16 00:49:39;;;;;;;77.70;45.67;;;;;;;8.36;97.18;98111.64;2187450;81;20943;-80
2022/11/16 00:52:40;;;;;;;89.97;47.80;;;;;;;8.37;97.15;98119.89;2187487;81;20920;-79
2022/11/16 00:55:40;;;;;;;83.37;51.23;;;;;;;8.36;97.18;98122.05;2187921;81;20943;-82
2022/11/16 00:58:41;;;;;;;78.97;49.60;;;;;;;8.38;97.12;98117.73;2187991;81;20912;-82
2022/11/16 01:01:41;;;;;;;76.47;47.50;;;;;;;8.38;97.00;98112.53;2188046;81;20983;-82
2022/11/16 01:04:41;;;;;;;78.47;48.97;;;;;;;8.39;96.97;98100.84;2187976;81;20931;-82
2022/11/16 01:07:42;;;;;;;79.13;47.27;;;;;;;8.40;96.82;98101.28;2187627;81;21023;-81
2022/11/16 01:10:42;;;;;;;86.53;49.07;;;;;;;8.38;96.64;98101.70;2187853;81;20987;-81
2022/11/16 01:13:43;;;;;;;78.23;47.67;;;;;;;8.38;96.78;98103.43;2187539;81;20963;-82
2022/11/16 01:16:43;;;;;;;73.33;48.33;;;;;;;8.38;96.53;98092.60;2187784;81;20987;-80
2022/11/16 01:19:44;;;;;;;1018.30;86.27;;;;;;;8.36;96.48;98086.95;2187933;81;20971;-82
2022/11/16 01:22:44;;;;;;;84.13;48.40;;;;;;;8.40;97.62;98090.02;2188258;81;20906;-82
2022/11/16 01:25:44;;;;;;;75.33;47.37;;;;;;;8.46;96.62;98081.83;2187820;81;20919;-82
2022/11/16 01:28:45;;;;;;;79.73;47.43;;;;;;;8.44;96.26;98080.95;2187825;81;21326;-81
2022/11/16 01:31:45;;;;;;;71.17;45.63;;;;;;;8.38;96.10;98087.40;2187778;81;21353;-81
2022/11/16 01:34:46;;;;;;;87.37;48.60;;;;;;;8.35;96.17;98080.00;2187951;81;20888;-82
2022/11/16 01:37:46;;;;;;;80.40;49.50;;;;;;;8.37;96.20;98079.58;2188003;81;20947;-81
2022/11/16 01:40:46;;;;;;;71.50;45.07;;;;;;;8.33;95.99;98073.88;2187922;79;21003;-81
2022/11/16 01:43:47;;;;;;;75.83;48.00;;;;;;;8.43;96.19;98079.64;2187836;81;21264;-81
2022/11/16 01:46:47;;;;;;;83.60;50.50;;;;;;;8.38;95.63;98071.80;2187649;81;20936;-81
2022/11/16 01:49:48;;;;;;;87.07;52.13;;;;;;;8.36;95.76;98075.24;2187787;81;20985;-82
2022/11/16 01:52:48;;;;;;;82.40;50.43;;;;;;;8.29;95.50;98067.78;2188086;81;20943;-82
2022/11/16 01:55:49;;;;;;;80.43;48.67;;;;;;;8.25;95.50;98064.72;2188071;81;21319;-81
2022/11/16 01:58:49;;;;;;;83.97;48.67;;;;;;;8.22;95.39;98062.97;2187840;81;20904;-82
2022/11/16 02:01:49;;;;;;;85.97;51.57;;;;;;;8.19;95.24;98057.73;2187834;81;20939;-81
2022/11/16 02:04:50;;;;;;;89.30;53.17;;;;;;;8.14;95.24;98054.23;2187841;81;20979;-82
2022/11/16 02:11:09;;;;;;;87.10;51.17;;;;;;;8.09;94.95;98044.22;2187804;81;21034;-82
2022/11/16 02:14:09;;;;;;;98.90;58.07;;;;;;;8.08;95.16;98037.28;2187762;81;20963;-82
2022/11/16 02:17:10;;;;;;;89.50;51.23;;;;;;;8.05;94.87;98032.05;2187678;81;20951;-84
2022/11/16 02:20:10;;;;;;;90.67;54.40;;;;;;;7.99;95.08;98028.09;2187748;81;20966;-84
2022/11/16 02:23:11;;;;;;;88.30;54.93;;;;;;;7.94;94.79;98032.38;2187849;81;20963;-85
2022/11/16 02:26:11;;;;;;;94.80;54.33;;;;;;;7.85;94.83;98031.00;2187538;81;20967;-80
2022/11/16 02:29:11;;;;;;;92.50;54.17;;;;;;;7.74;95.04;98032.16;2187901;81;21003;-82
2022/11/16 02:32:12;;;;;;;84.43;51.13;;;;;;;7.67;95.16;98030.36;2187838;81;20995;-81
2022/11/16 02:35:12;;;;;;;76.50;47.83;;;;;;;7.61;95.07;98032.47;2187717;80;20984;-81
2022/11/16 02:38:13;;;;;;;78.93;45.93;;;;;;;7.58;95.43;98032.44;2189005;81;20978;-80
2022/11/16 02:41:13;;;;;;;74.60;44.53;;;;;;;7.51;95.22;98022.83;2187629;79;21370;-82
2022/11/16 02:44:13;;;;;;;71.87;43.30;;;;;;;7.45;95.10;98026.66;2188094;81;20927;-82
2022/11/16 02:47:14;;;;;;;69.60;40.43;;;;;;;7.31;95.05;98019.14;2187800;81;20951;-81
2022/11/16 02:50:14;;;;;;;65.63;40.07;;;;;;;7.26;95.33;98026.88;2188305;81;20991;-80
2022/11/16 02:53:15;;;;;;;72.40;41.20;;;;;;;7.21;95.25;98013.41;2188851;81;21330;-77
2022/11/16 02:56:15;;;;;;;57.97;34.70;;;;;;;7.14;95.03;98009.86;2188172;81;20919;-80
2022/11/16 02:59:15;;;;;;;55.53;36.13;;;;;;;7.10;95.09;98004.62;2189281;81;20974;-81
2022/11/16 03:02:16;;;;;;;53.43;35.40;;;;;;;7.07;95.16;97994.20;2189665;81;20999;-82
2022/11/16 03:05:16;;;;;;;55.17;34.87;;;;;;;7.01;95.29;97994.57;2187752;81;21015;-80
2022/11/16 03:08:17;;;;;;;59.80;35.00;;;;;;;6.94;95.23;97996.65;2187729;81;21030;-81
2022/11/16 03:14:36;;;;;;;48.37;32.63;;;;;;;6.80;95.60;97990.38;2187467;81;20944;-78
2022/11/16 03:17:36;;;;;;;53.17;33.67;;;;;;;6.75;95.71;97988.58;2187659;81;20943;-80
2022/11/16 03:20:37;;;;;;;50.67;32.73;;;;;;;6.75;96.15;97987.28;2187652;81;20974;-82
2022/11/16 03:23:37;;;;;;;55.50;35.60;;;;;;;6.71;96.22;97987.23;2187500;81;20915;-80
2022/11/16 03:26:38;;;;;;;57.67;34.93;;;;;;;6.68;96.08;97983.73;2187511;81;20951;-80
2022/11/16 03:29:38;;;;;;;53.83;34.23;;;;;;;6.70;96.34;97995.00;2187707;81;20939;-80
2022/11/16 03:32:38;;;;;;;56.00;35.40;;;;;;;6.66;96.42;97999.70;2187609;81;20943;-80
2022/11/16 03:35:39;;;;;;;58.50;34.43;;;;;;;6.62;96.42;97994.02;2187481;81;20987;-81
2022/11/16 03:38:39;;;;;;;51.57;33.90;;;;;;;6.61;96.47;97988.39;2187468;81;21335;-82
2022/11/16 03:41:39;;;;;;;47.17;31.60;;;;;;;6.62;96.56;97990.13;2198440;79;20980;-80
2022/11/16 03:44:40;;;;;;;47.40;31.67;;;;;;;6.61;96.53;97985.80;2209617;81;20947;-81
2022/11/16 03:47:41;;;;;;;51.03;33.73;;;;;;;6.61;96.59;97988.39;2210058;81;20944;-80
2022/11/16 03:50:41;;;;;;;50.30;32.60;;;;;;;6.61;96.56;97984.50;2209798;81;21343;-81
2022/11/16 03:53:41;;;;;;;45.33;31.67;;;;;;;6.63;96.68;97986.69;2209851;81;20924;-82
2022/11/16 03:56:41;;;;;;;51.60;31.90;;;;;;;6.64;96.73;97987.14;2209974;81;20923;-81
2022/11/16 03:59:42;;;;;;;44.63;30.57;;;;;;;6.65;96.61;97979.80;2209967;81;20964;-81
2022/11/16 04:02:42;;;;;;;43.27;30.43;;;;;;;6.59;96.33;97978.42;2209605;81;21402;-80
2022/11/16 04:25:19;;;;;;;31.43;23.23;;;;;;;6.48;96.80;97967.91;2209793;81;21031;-79
2022/11/16 04:28:19;;;;;;;43.20;24.23;;;;;;;6.47;96.90;97969.18;2210012;81;20994;-80
2022/11/16 04:37:57;;;;;;;30.33;23.23;;;;;;;7.58;94.54;97963.61;2209534;81;20975;-83
2022/11/16 04:40:57;;;;;;;27.07;20.57;;;;;;;7.23;94.17;97959.78;2205199;81;21003;-81
2022/11/16 04:43:58;;;;;;;27.07;20.93;;;;;;;6.98;94.16;97957.34;2187329;81;20951;-81
2022/11/16 04:47:07;;;;;;;22.40;17.60;;;;;;;6.83;95.20;97955.83;2187572;81;21007;-82
2022/11/16 04:50:12;;;;;;;24.30;18.03;;;;;;;6.76;95.26;97963.95;2187830;81;20959;-82
2022/11/16 04:53:10;;;;;;;20.17;16.43;;;;;;;6.62;95.56;97957.72;2154609;81;20932;-79
2022/11/16 04:56:11;;;;;;;20.77;14.77;;;;;;;6.68;96.61;97957.80;2186909;81;20984;-81
2022/11/16 04:59:11;;;;;;;17.60;14.57;;;;;;;6.63;96.16;97959.04;2186926;81;20891;-83
2022/11/16 05:02:11;;;;;;;18.23;13.37;;;;;;;6.51;96.04;97960.17;2187406;81;20960;-82
2022/11/16 05:05:11;;;;;;;16.03;12.50;;;;;;;6.46;96.12;97953.18;2186964;81;20931;-82
2022/11/16 05:08:12;;;;;;;15.03;11.80;;;;;;;6.39;96.31;97947.91;2186638;81;20965;-82
2022/11/16 05:11:12;;;;;;;13.17;11.23;;;;;;;6.34;96.54;97950.86;2186792;81;21023;-82
2022/11/16 05:14:13;;;;;;;12.93;10.70;;;;;;;6.29;96.50;97959.42;2187367;81;20955;-81
2022/11/16 05:17:13;;;;;;;12.43;10.57;;;;;;;6.25;96.97;97950.73;2187643;81;21307;-82
2022/11/16 05:26:51;;;;;;;9.23;8.20;;;;;;;6.16;97.25;97942.83;2186912;81;20916;-84
2022/11/16 05:29:51;;;;;;;10.00;8.87;;;;;;;6.10;97.44;97941.44;2186619;81;20975;-80
2022/11/16 05:32:52;;;;;;;11.07;8.90;;;;;;;6.05;97.50;97945.64;2187352;81;20955;-82
2022/11/16 05:35:52;;;;;;;9.33;8.17;;;;;;;6.10;97.84;97949.21;2187626;81;21421;-84
2022/11/16 05:38:53;;;;;;;78.13;20.53;;;;;;;6.09;98.00;97945.30;2186683;81;20947;-81
2022/11/16 05:41:53;;;;;;;12.77;7.53;;;;;;;6.10;98.44;97937.98;2186258;79;21035;-82
2022/11/16 05:44:53;;;;;;;12.90;6.93;;;;;;;6.01;97.97;97936.09;2185595;81;20963;-81
2022/11/16 05:47:57;;;;;;;9.70;7.03;;;;;;;5.98;98.16;97937.34;2186350;81;20943;-81
2022/11/16 05:50:57;;;;;;;8.30;7.27;;;;;;;5.93;98.36;97929.49;2185536;81;20912;-82
2022/11/16 05:53:57;;;;;;;7.57;6.77;;;;;;;5.93;98.46;97927.33;2186575;81;20982;-82
2022/11/16 05:56:58;;;;;;;7.17;6.43;;;;;;;5.93;98.46;97930.79;2187122;81;21455;-82
2022/11/16 05:59:58;;;;;;;7.90;7.10;;;;;;;5.97;98.66;97930.41;2187040;81;20963;-84
2022/11/16 06:02:59;;;;;;;9.33;7.30;;;;;;;5.99;98.48;97938.66;2186962;81;20931;-82
2022/11/16 06:05:59;;;;;;;9.37;8.20;;;;;;;5.98;98.41;97940.80;2186188;81;20959;-81
2022/11/16 06:08:59;;;;;;;10.27;7.73;;;;;;;6.01;98.61;97939.97;2186101;81;21001;-81
2022/11/16 06:12:00;;;;;;;9.17;8.27;;;;;;;6.03;98.92;97941.73;2180002;81;21344;-81
2022/11/16 06:15:00;;;;;;;9.03;8.13;;;;;;;6.09;98.73;97938.40;2178696;81;20959;-81
2022/11/16 06:18:01;;;;;;;8.90;7.73;;;;;;;6.10;98.63;97936.25;2179049;81;20955;-79
2022/11/16 06:21:01;;;;;;;9.63;8.40;;;;;;;6.14;98.64;97930.27;2178360;81;20920;-80
2022/11/16 06:24:07;;;;;;;9.67;7.70;;;;;;;6.14;98.89;97928.97;2180691;81;20912;-79
2022/11/16 06:27:02;;;;;;;13.23;9.57;;;;;;;6.16;98.65;97929.00;2178996;81;20907;-80
2022/11/16 06:30:02;;;;;;;13.13;10.03;;;;;;;6.20;98.57;97923.88;2178350;81;20971;-79
2022/11/16 06:33:03;;;;;;;8.37;7.47;;;;;;;6.21;98.39;97926.92;2177491;81;21631;-81
2022/11/16 06:36:03;;;;;;;10.87;7.73;;;;;;;6.46;100.00;97929.42;2178162;81;20951;-80
2022/11/16 06:39:04;;;;;;;7.80;7.00;;;;;;;6.47;98.62;97932.89;2177430;82;20896;-81
2022/11/16 06:42:04;;;;;;;7.97;6.50;;;;;;;6.38;97.91;97933.63;2192786;80;20935;-82
2022/11/16 06:45:04;;;;;;;7.90;7.10;;;;;;;6.31;97.70;97933.97;2206691;80;21290;-81
2022/11/16 06:48:05;;;;;;;7.80;6.97;;;;;;;6.26;98.04;97930.45;2207576;81;21003;-79
2022/11/16 06:51:05;;;;;;;8.30;7.30;;;;;;;6.18;97.70;97933.35;2207958;81;20884;-81
2022/11/16 06:54:06;;;;;;;10.00;7.40;;;;;;;6.15;98.12;97936.33;2207117;80;21271;-80
2022/11/16 06:57:06;;;;;;;9.63;7.60;;;;;;;6.12;98.31;97931.97;2206433;80;21330;-81
2022/11/16 07:00:07;;;;;;;10.23;7.43;;;;;;;6.05;98.05;97923.20;2206601;81;20904;-81
2022/11/16 07:03:07;;;;;;;10.20;6.90;;;;;;;6.05;98.06;97931.39;2206267;80;21489;-81
2022/11/16 07:06:07;;;;;;;13.30;7.40;;;;;;;6.02;98.11;97928.76;2207462;80;20892;-81
2022/11/16 07:09:08;;;;;;;7.17;6.47;;;;;;;6.00;98.27;97925.28;2207958;80;21413;-80
2022/11/16 07:12:08;;;;;;;10.23;7.00;;;;;;;5.96;97.95;97917.88;2208257;80;20959;-82
2022/11/16 07:15:09;;;;;;;7.33;6.50;;;;;;;5.89;97.53;97919.03;2207891;80;20975;-81
2022/11/16 07:18:09;;;;;;;8.40;7.13;;;;;;;5.81;98.23;97914.16;2208405;80;20916;-79
2022/11/16 07:21:12;;;;;;;7.77;6.97;;;;;;;5.75;98.39;97906.73;2207978;80;21285;-81
2022/11/16 07:24:13;;;;;;;8.17;6.87;;;;;;;5.79;99.11;97909.38;2208279;80;20916;-83
2022/11/16 07:27:13;;;;;;;7.17;6.23;;;;;;;5.71;98.52;97903.66;2208363;81;20940;-81
2022/11/16 07:30:14;;;;;;;7.27;5.83;;;;;;;5.66;98.69;97901.84;2207850;80;21050;-81
2022/11/16 07:33:14;;;;;;;8.67;6.50;;;;;;;5.63;99.13;97900.06;2208368;80;20884;-81
2022/11/16 07:36:15;;;;;;;7.30;5.33;;;;;;;5.61;99.01;97891.41;2208649;80;20925;-80
2022/11/16 07:39:15;;;;;;;5.23;4.73;;;;;;;5.60;99.14;97893.97;2208585;80;21591;-81
2022/11/16 07:42:15;;;;;;;6.40;4.77;;;;;;;5.56;99.25;97889.16;2208268;80;20975;-82
2022/11/16 07:45:16;;;;;;;5.17;4.67;;;;;;;5.54;99.29;97883.52;2207614;80;20909;-82
2022/11/16 07:48:18;;;;;;;8.10;5.03;;;;;;;5.50;99.54;97880.01;2207396;80;21371;-82
2022/11/16 07:51:18;;;;;;;165.27;33.83;;;;;;;5.54;99.94;97878.34;2183520;81;20912;-81
2022/11/16 07:54:19;;;;;;;11.50;5.73;;;;;;;5.58;99.94;97876.25;2206482;80;21386;-81
2022/11/16 07:57:19;;;;;;;7.17;5.00;;;;;;;5.58;99.83;97877.55;2206957;80;21326;-80
2022/11/16 08:00:20;;;;;;;9.07;4.33;;;;;;;5.60;99.89;97877.14;2206398;81;20936;-82
2022/11/16 08:03:20;;;;;;;5.93;4.50;;;;;;;5.64;99.81;97873.76;2208152;80;20951;-82
2022/11/16 08:06:21;;;;;;;4.97;4.37;;;;;;;5.66;99.85;97872.94;2207085;80;21338;-81
2022/11/16 08:09:21;;;;;;;4.87;4.30;;;;;;;5.63;99.63;97875.47;2207469;80;20943;-80
2022/11/16 08:12:21;;;;;;;6.93;4.40;;;;;;;5.62;99.74;97880.20;2207276;80;21370;-82
2022/11/16 08:15:22;;;;;;;5.40;4.90;;;;;;;5.63;99.90;97881.08;2208860;80;20919;-81
2022/11/16 08:18:22;;;;;;;5.50;4.30;;;;;;;5.64;99.94;97879.80;2208210;81;20975;-82
2022/11/16 08:21:23;;;;;;;4.80;4.20;;;;;;;5.68;99.74;97882.89;2208902;80;21419;-83
2022/11/16 08:24:24;;;;;;;4.90;4.37;;;;;;;5.71;99.92;97876.46;2209316;81;20983;-83
2022/11/16 08:27:23;;;;;;;5.00;4.27;;;;;;;5.71;99.87;97881.64;2209235;81;21274;-83
2022/11/16 08:30:24;;;;;;;5.60;4.57;;;;;;;5.70;99.62;97882.48;2208019;80;20944;-84
2022/11/16 08:33:25;;;;;;;8.23;4.80;;;;;;;5.70;99.57;97890.26;2209419;80;20964;-82
2022/11/16 08:36:25;;;;;;;6.13;5.53;;;;;;;5.73;99.81;97884.25;2209052;81;20949;-83
2022/11/16 08:39:27;;;;;;;5.30;4.80;;;;;;;5.74;99.55;97890.75;2184703;81;20984;-82
2022/11/16 08:42:35;;;;;;;6.57;5.87;;;;;;;5.76;99.47;97887.77;2207770;81;21674;-83
2022/11/16 08:45:39;;;;;;;7.57;5.47;;;;;;;5.79;99.52;97885.64;2183225;80;20955;-83
2022/11/16 08:48:43;;;;;;;7.25;6.50;;;;;;;5.85;99.74;97882.27;2183250;80;20987;-83
2022/11/16 08:51:44;;;;;;;7.80;6.33;;;;;;;5.85;99.54;97881.85;2182529;80;20967;-83
2022/11/16 08:54:45;;;;;;;12.13;8.00;;;;;;;5.88;99.50;97889.66;2207767;80;20979;-83
2022/11/16 08:57:45;;;;;;;13.00;7.57;;;;;;;5.92;100.00;97886.73;2208393;80;20987;-82
2022/11/16 09:00:45;;;;;;;8.43;7.50;;;;;;;5.94;99.57;97900.58;2208332;81;20928;-83
2022/11/16 09:03:49;;;;;;;7.40;6.53;;;;;;;5.96;99.48;97895.87;2208487;81;21014;-83
2022/11/16 09:06:51;;;;;;;8.67;7.03;;;;;;;6.00;99.37;97905.84;2207918;81;20975;-84
2022/11/16 09:09:50;;;;;;;7.10;6.40;;;;;;;6.02;99.44;97905.45;2208949;80;20880;-83
2022/11/16 09:12:53;;;;;;;7.83;6.33;;;;;;;6.03;99.13;97899.41;2207768;80;21283;-83
2022/11/16 09:15:53;;;;;;;8.00;6.10;;;;;;;6.02;99.02;97894.66;2207619;81;21315;-82
2022/11/16 09:18:54;;;;;;;6.77;5.97;;;;;;;6.02;98.92;97890.77;2207568;80;20920;-82
2022/11/16 09:21:55;;;;;;;7.00;5.77;;;;;;;6.05;98.84;97882.17;2208039;80;20945;-84
2022/11/16 09:24:55;;;;;;;7.57;5.90;;;;;;;6.00;98.64;97880.81;2208011;80;20960;-83
2022/11/16 09:27:57;;;;;;;9.37;6.40;;;;;;;5.97;98.83;97884.66;2183462;81;20935;-81
2022/11/16 09:30:58;;;;;;;6.37;5.77;;;;;;;5.97;98.81;97888.97;2207749;80;20900;-82
2022/11/16 09:33:58;;;;;;;7.53;6.17;;;;;;;5.97;99.13;97885.08;2207611;81;20958;-82
2022/11/16 09:36:59;;;;;;;7.00;5.77;;;;;;;5.98;99.00;97876.03;2208201;80;20948;-83
2022/11/16 09:39:59;;;;;;;7.00;6.30;;;;;;;5.95;99.15;97871.23;2208422;81;21359;-82
2022/11/16 09:43:00;;;;;;;6.67;5.97;;;;;;;5.96;99.20;97869.09;2197538;81;20987;-83
2022/11/16 09:46:00;;;;;;;7.13;6.00;;;;;;;5.92;98.83;97871.19;2185488;81;20928;-83
2022/11/16 09:49:00;;;;;;;6.40;5.80;;;;;;;5.90;99.15;97875.05;2184931;81;21350;-83
2022/11/16 09:52:01;;;;;;;8.47;7.00;;;;;;;5.91;99.24;97874.20;2185378;81;20935;-83
2022/11/16 09:55:01;;;;;;;9.27;6.33;;;;;;;5.87;99.14;97877.98;2185802;81;21317;-82
2022/11/16 09:58:02;;;;;;;10.73;9.60;;;;;;;5.87;99.23;97877.98;2185172;81;20923;-83
2022/11/16 10:01:02;;;;;;;11.27;7.87;;;;;;;5.85;99.22;97872.78;2186481;81;21013;-83
2022/11/16 10:04:03;;;;;;;9.13;6.23;;;;;;;5.81;99.37;97875.31;2185889;81;20916;-82
2022/11/16 10:07:03;;;;;;;15.47;7.27;;;;;;;5.80;99.52;97872.27;2184962;81;20951;-81
2022/11/16 10:10:03;;;;;;;9.27;5.53;;;;;;;5.78;99.67;97870.08;2184601;81;20935;-82
2022/11/16 10:13:04;;;;;;;8.40;6.23;;;;;;;5.80;99.97;97865.80;2184586;81;21010;-83
2022/11/16 10:16:04;;;;;;;7.40;5.90;;;;;;;5.81;99.87;97872.72;2186213;81;20907;-82
2022/11/16 10:19:05;;;;;;;7.70;5.53;;;;;;;5.81;99.54;97867.54;2185997;81;20907;-82
2022/11/16 10:22:05;;;;;;;6.27;5.33;;;;;;;5.75;99.14;97860.13;2185233;81;20983;-83
2022/11/16 10:25:07;;;;;;;8.13;5.87;;;;;;;5.69;99.40;97852.27;2184175;81;20999;-78
2022/11/16 10:28:06;;;;;;;7.20;5.90;;;;;;;5.71;99.94;97855.75;2184152;81;20939;-79
2022/11/16 10:31:06;;;;;;;6.67;5.57;;;;;;;5.69;99.97;97843.20;2186101;81;21438;-83
2022/11/16 10:34:07;;;;;;;8.07;5.67;;;;;;;5.70;99.88;97838.47;2186035;81;20935;-82
2022/11/16 10:37:07;;;;;;;7.07;6.20;;;;;;;5.67;99.69;97834.97;2186188;81;20931;-82
2022/11/16 10:40:08;;;;;;;6.57;4.90;;;;;;;5.68;100.00;97837.58;2185702;81;20923;-82
2022/11/16 10:43:08;;;;;;;9.17;5.23;;;;;;;5.69;100.00;97829.39;2195772;79;20963;-82
2022/11/16 10:46:11;;;;;;;8.47;6.17;;;;;;;5.72;100.00;97835.48;2218198;80;20892;-81
2022/11/16 10:49:10;;;;;;;9.20;6.10;;;;;;;5.74;100.00;97829.90;2217362;80;20935;-82
2022/11/16 10:52:09;;;;;;;7.00;5.73;;;;;;;5.76;100.00;97830.80;2217642;80;21607;-83
2022/11/16 10:55:10;;;;;;;6.60;5.63;;;;;;;5.76;100.00;97823.02;2217030;80;20955;-82
2022/11/16 10:58:10;;;;;;;7.37;5.80;;;;;;;5.75;100.00;97828.19;2216679;80;20895;-82
2022/11/16 11:01:11;;;;;;;6.27;5.50;;;;;;;5.76;100.00;97824.74;2217315;80;20955;-83
2022/11/16 11:04:12;;;;;;;6.53;5.43;;;;;;;5.75;100.00;97825.17;2217897;80;21292;-82
2022/11/16 11:07:14;;;;;;;8.17;6.30;;;;;;;5.77;100.00;97825.19;2195830;80;20923;-83
2022/11/16 11:10:15;;;;;;;5.90;5.27;;;;;;;5.78;100.00;97818.30;2218656;80;20971;-83
2022/11/16 11:13:15;;;;;;;6.83;5.70;;;;;;;5.80;100.00;97820.48;2217722;80;20971;-79
2022/11/16 11:16:15;;;;;;;5.97;4.90;;;;;;;5.80;100.00;97816.59;2217677;80;21043;-83
2022/11/16 11:19:18;;;;;;;7.77;5.27;;;;;;;5.82;100.00;97814.89;2196886;80;20967;-83
2022/11/16 11:22:18;;;;;;;11.40;6.03;;;;;;;5.75;100.00;97814.81;2217925;80;20952;-83
2022/11/16 11:25:19;;;;;;;8.30;6.50;;;;;;;5.71;100.00;97818.20;2218958;80;20928;-83
2022/11/16 11:28:19;;;;;;;10.00;8.03;;;;;;;5.75;100.00;97819.99;2217922;80;20959;-83
2022/11/16 11:31:24;;;;;;;9.00;7.73;;;;;;;5.77;100.00;97816.13;2217847;80;20906;-83
2022/11/16 11:34:20;;;;;;;8.13;7.07;;;;;;;5.78;100.00;97815.28;2218813;80;21346;-83
2022/11/16 11:37:20;;;;;;;7.60;6.37;;;;;;;5.77;100.00;97813.53;2219112;80;21031;-81
2022/11/16 11:40:21;;;;;;;6.70;6.00;;;;;;;5.76;100.00;97814.39;2218547;80;20927;-83
2022/11/16 11:43:21;;;;;;;5.37;4.83;;;;;;;5.72;100.00;97813.47;2218467;80;20955;-83
2022/11/16 11:46:22;;;;;;;5.63;4.63;;;;;;;5.72;100.00;97804.41;2219079;80;20941;-83
2022/11/16 11:49:22;;;;;;;5.50;4.97;;;;;;;5.66;100.00;97813.38;2218732;80;20958;-83
2022/11/16 11:52:22;;;;;;;6.20;5.20;;;;;;;5.65;100.00;97810.34;2217713;80;20888;-82
2022/11/16 11:55:23;;;;;;;5.83;5.23;;;;;;;5.66;100.00;97807.34;2217033;80;21417;-82
2022/11/16 11:58:23;;;;;;;6.03;5.10;;;;;;;5.69;100.00;97806.09;2217245;80;21004;-82
2022/11/16 12:01:24;;;;;;;5.27;4.73;;;;;;;5.68;100.00;97801.75;2216733;80;20907;-83
2022/11/16 12:04:24;;;;;;;7.63;5.67;;;;;;;5.65;100.00;97799.99;2216111;80;21203;-82
2022/11/16 12:07:24;;;;;;;8.47;4.13;;;;;;;5.66;100.00;97803.03;2215907;80;20946;-81
2022/11/16 12:10:25;;;;;;;5.63;4.20;;;;;;;5.67;100.00;97797.00;2215805;80;20891;-82
2022/11/16 12:13:25;;;;;;;5.47;4.47;;;;;;;5.65;100.00;97797.83;2216166;80;21415;-83
2022/11/16 12:16:26;;;;;;;5.63;4.50;;;;;;;5.66;100.00;97800.44;2216370;80;20971;-82
2022/11/16 12:19:26;;;;;;;5.20;4.57;;;;;;;5.66;100.00;97800.44;2215976;80;20892;-83
2022/11/16 12:22:26;;;;;;;7.03;4.63;;;;;;;5.65;100.00;97794.81;2216327;80;21327;-82
2022/11/16 12:25:30;;;;;;;5.63;4.30;;;;;;;5.69;100.00;97791.42;2217540;80;20951;-82
2022/11/16 12:28:30;;;;;;;7.73;4.37;;;;;;;5.68;100.00;97790.98;2216784;80;21309;-81
2022/11/16 12:31:30;;;;;;;4.63;4.23;;;;;;;5.68;100.00;97787.09;2216714;80;21287;-82
2022/11/16 12:34:31;;;;;;;5.53;4.57;;;;;;;5.70;100.00;97786.69;2217038;80;20943;-83
2022/11/16 12:37:31;;;;;;;5.00;4.40;;;;;;;5.72;100.00;97785.41;2216627;80;20911;-83
2022/11/16 12:40:32;;;;;;;4.77;4.10;;;;;;;5.70;100.00;97778.92;2217435;80;20912;-82
2022/11/16 12:43:35;;;;;;;5.17;4.50;;;;;;;5.68;100.00;97778.03;2216411;80;20967;-84
2022/11/16 12:46:35;;;;;;;6.80;4.87;;;;;;;5.67;100.00;97781.47;2216038;80;21336;-82
2022/11/16 12:49:35;;;;;;;5.70;4.73;;;;;;;5.70;100.00;97785.39;2217125;80;20944;-82
2022/11/16 12:52:36;;;;;;;5.83;4.93;;;;;;;5.69;100.00;97784.95;2217527;80;20892;-82
2022/11/16 12:55:36;;;;;;;5.37;4.43;;;;;;;5.69;100.00;97784.95;2216767;80;20940;-82
2022/11/16 12:58:44;;;;;;;5.03;4.43;;;;;;;5.72;100.00;97784.98;2217334;80;20900;-83
2022/11/16 13:01:42;;;;;;;5.10;4.37;;;;;;;5.75;100.00;97788.91;2193976;80;20872;-81
2022/11/16 13:04:44;;;;;;;9.27;4.67;;;;;;;5.74;100.00;97784.59;2216274;80;20892;-80
2022/11/16 13:07:42;;;;;;;4.93;4.50;;;;;;;5.74;100.00;97784.59;2215437;80;20951;-80
2022/11/16 13:10:44;;;;;;;6.23;4.07;;;;;;;5.76;100.00;97784.19;2215963;80;20936;-81
2022/11/16 13:13:44;;;;;;;5.07;3.97;;;;;;;5.76;100.00;97780.72;2216095;80;20971;-81
2022/11/16 13:16:44;;;;;;;4.37;3.97;;;;;;;5.71;100.00;97784.55;2215513;80;21347;-80
2022/11/16 13:19:47;;;;;;;4.87;4.23;;;;;;;5.74;100.00;97783.29;2215974;80;20919;-80
2022/11/16 13:22:50;;;;;;;4.63;4.10;;;;;;;5.75;100.00;97779.85;2215758;80;21355;-82
2022/11/16 13:25:48;;;;;;;5.80;5.00;;;;;;;5.71;100.00;97783.25;2215034;80;20923;-82
2022/11/16 13:28:48;;;;;;;23.60;8.13;;;;;;;5.75;100.00;97789.34;2214605;80;21404;-81
2022/11/16 13:31:49;;;;;;;6.63;5.30;;;;;;;5.74;100.00;97785.88;2215362;80;20944;-81
2022/11/16 13:34:49;;;;;;;5.77;5.07;;;;;;;5.72;100.00;97779.81;2216705;80;20900;-84
2022/11/16 13:37:50;;;;;;;6.77;4.40;;;;;;;5.72;100.00;97780.23;2216853;80;20966;-83
2022/11/16 13:40:50;;;;;;;7.33;5.20;;;;;;;5.68;100.00;97781.91;2216325;80;20943;-82
2022/11/16 13:43:50;;;;;;;5.03;4.43;;;;;;;5.66;100.00;97781.02;2215705;80;21037;-83
2022/11/16 13:46:51;;;;;;;7.20;4.77;;;;;;;5.61;100.00;97787.85;2192343;80;20991;-81
2022/11/16 13:49:51;;;;;;;6.50;4.67;;;;;;;5.55;100.00;97782.59;2183773;81;20979;-82
2022/11/16 13:52:51;;;;;;;8.17;5.40;;;;;;;5.48;100.00;97778.17;2184862;81;20943;-82
2022/11/16 13:55:52;;;;;;;7.53;5.77;;;;;;;5.47;100.00;97772.55;2184985;81;21293;-82
2022/11/16 13:58:56;;;;;;;6.10;5.50;;;;;;;5.41;100.00;97764.69;2184636;81;20943;-83
2022/11/16 14:01:56;;;;;;;9.03;5.53;;;;;;;5.38;100.00;97765.52;2185183;81;20906;-82
2022/11/16 14:04:56;;;;;;;19.50;9.30;;;;;;;5.35;100.00;97767.19;2185840;81;20927;-81
2022/11/16 14:07:56;;;;;;;7.77;6.20;;;;;;;5.30;100.00;97761.94;2186365;81;20891;-83
2022/11/16 14:10:57;;;;;;;13.80;6.07;;;;;;;5.26;100.00;97756.70;2186388;81;21027;-84
2022/11/16 14:13:59;;;;;;;6.73;5.50;;;;;;;5.21;100.00;97755.76;2185534;81;20947;-82
2022/11/16 14:17:00;;;;;;;7.03;5.00;;;;;;;5.19;100.00;97759.58;2185110;81;20927;-81
2022/11/16 14:20:01;;;;;;;9.43;6.93;;;;;;;5.18;100.00;97756.97;2185278;81;21380;-82
2022/11/16 14:23:04;;;;;;;10.13;6.87;;;;;;;5.18;100.00;97766.02;2185159;81;20915;-82
2022/11/16 14:26:04;;;;;;;10.23;7.60;;;;;;;5.18;100.00;97756.97;2178231;81;20915;-81
2022/11/16 14:29:05;;;;;;;9.87;6.93;;;;;;;5.16;100.00;97769.02;2178436;82;21637;-82
2022/11/16 14:32:05;;;;;;;7.97;6.73;;;;;;;5.08;100.00;97765.01;2178450;81;20919;-84
2022/11/16 14:35:07;;;;;;;6.67;4.90;;;;;;;5.02;100.00;97763.62;2178954;82;20912;-83
2022/11/16 14:38:06;;;;;;;8.23;5.43;;;;;;;4.96;100.00;97771.27;2178604;81;20951;-83
2022/11/16 14:41:06;;;;;;;6.07;4.90;;;;;;;4.93;100.00;97769.93;2179508;81;20904;-80
2022/11/16 14:44:07;;;;;;;6.27;5.13;;;;;;;4.88;100.00;97772.44;2179510;81;20983;-83
2022/11/16 14:47:07;;;;;;;6.30;5.30;;;;;;;4.83;100.00;97765.03;2179912;80;20948;-84